createdAt,value
2022-11-25T00:00:13.050Z,101308.03
2022-11-25T00:03:17.297Z,101308.06
2022-11-25T00:06:24.250Z,101292.56
2022-11-25T00:09:27.812Z,101290.81
2022-11-25T00:12:32.846Z,101286.47
2022-11-25T00:15:44.554Z,101285.69
2022-11-25T00:18:51.427Z,101275.31
2022-11-25T00:21:55.033Z,101283.09
2022-11-25T00:24:58.606Z,101280.50
2022-11-25T00:28:03.688Z,101272.72
2022-11-25T00:31:10.172Z,101273.53
2022-11-25T00:34:15.615Z,101270.09
2022-11-25T00:37:19.143Z,101278.72
2022-11-25T00:40:22.729Z,101278.72
2022-11-25T00:43:45.314Z,101286.53
2022-11-25T00:46:48.899Z,101279.63
2022-11-25T00:49:55.077Z,101286.50
2022-11-25T00:52:58.618Z,101287.34
2022-11-25T00:56:15.384Z,101282.16
2022-11-25T00:59:20.588Z,101281.28
2022-11-25T01:02:24.642Z,101292.50
2022-11-25T01:05:28.572Z,101290.81
2022-11-25T01:08:32.575Z,101287.31
2022-11-25T01:11:36.317Z,101285.63
2022-11-25T01:14:41.638Z,101280.44
2022-11-25T01:17:45.315Z,101273.53
2022-11-25T01:20:49.050Z,101271.78
2022-11-25T01:23:54.675Z,101270.94
2022-11-25T01:26:58.321Z,101270.03
2022-11-25T01:30:03.319Z,101268.28
2022-11-25T01:33:07.052Z,101274.34
2022-11-25T01:36:13.479Z,101278.63
2022-11-25T01:39:20.510Z,101280.38
2022-11-25T01:42:24.104Z,101277.78
2022-11-25T01:45:38.348Z,101278.66
2022-11-25T01:48:49.850Z,101269.19
2022-11-25T01:52:01.234Z,101268.34
2022-11-25T01:55:11.947Z,101259.66
2022-11-25T01:58:21.413Z,101259.66
2022-11-25T02:01:26.903Z,101260.50
2022-11-25T02:04:36.556Z,101253.63
2022-11-25T02:07:45.704Z,101243.28
2022-11-25T02:10:49.941Z,101248.44
2022-11-25T02:13:54.946Z,101247.56
2022-11-25T02:17:02.531Z,101251.91
2022-11-25T02:20:10.964Z,101247.56
2022-11-25T02:23:26.783Z,101254.50
2022-11-25T02:26:32.772Z,101257.09
2022-11-25T02:29:37.664Z,101255.38
2022-11-25T02:32:45.469Z,101262.31
2022-11-25T02:35:53.605Z,101257.13
2022-11-25T02:39:00.680Z,101250.22
2022-11-25T02:42:06.047Z,101243.28
2022-11-25T02:45:14.696Z,101245.88
2022-11-25T02:48:18.412Z,101248.50
2022-11-25T02:51:25.088Z,101246.75
2022-11-25T02:54:28.704Z,101235.50
2022-11-25T02:57:33.722Z,101241.56
2022-11-25T03:00:38.037Z,101236.41
2022-11-25T03:03:42.137Z,101229.47
2022-11-25T03:06:45.735Z,101238.13
2022-11-25T03:09:49.361Z,101229.50
2022-11-25T03:12:54.571Z,101229.47
2022-11-25T03:15:58.417Z,101229.50
2022-11-25T03:19:02.009Z,101233.81
2022-11-25T03:22:05.956Z,101228.63
2022-11-25T03:25:11.916Z,101230.38
2022-11-25T03:28:17.133Z,101225.19
2022-11-25T03:31:20.827Z,101221.75
2022-11-25T03:34:24.571Z,101213.97
2022-11-25T03:37:28.420Z,101214.81
2022-11-25T03:40:31.960Z,101222.59
2022-11-25T03:43:36.920Z,101225.22
2022-11-25T03:46:40.518Z,101216.56
2022-11-25T03:49:44.238Z,101228.69
2022-11-25T03:52:47.926Z,101237.34
2022-11-25T03:55:52.137Z,101240.78
2022-11-25T03:58:57.132Z,101240.81
2022-11-25T04:02:00.952Z,101246.84
2022-11-25T04:05:05.606Z,101244.28
2022-11-25T04:08:09.354Z,101242.56
2022-11-25T04:11:13.070Z,101234.78
2022-11-25T04:14:17.060Z,101237.38
2022-11-25T04:17:20.631Z,101233.91
2022-11-25T04:20:24.191Z,101228.72
2022-11-25T04:23:27.752Z,101234.81
2022-11-25T04:26:31.510Z,101236.53
2022-11-25T04:29:36.438Z,101240.84
2022-11-25T04:32:40.653Z,101243.47
2022-11-25T04:35:44.216Z,101244.31
2022-11-25T04:38:47.863Z,101245.19
2022-11-25T04:42:11.443Z,101249.50
2022-11-25T04:45:23.666Z,101236.53
2022-11-25T04:48:27.686Z,101234.78
2022-11-25T04:51:31.810Z,101234.81
2022-11-25T04:54:35.605Z,101231.38
2022-11-25T04:57:39.457Z,101241.75
2022-11-25T05:00:44.457Z,101243.47
2022-11-25T05:03:55.954Z,101240.00
2022-11-25T05:07:01.062Z,101240.88
2022-11-25T05:10:05.290Z,101232.22
2022-11-25T05:13:08.969Z,101237.41
2022-11-25T05:16:14.395Z,101239.13
2022-11-25T05:19:19.128Z,101238.25
2022-11-25T05:22:27.013Z,101240.84
2022-11-25T05:25:30.665Z,101242.59
2022-11-25T05:28:37.212Z,101247.78
2022-11-25T05:31:42.445Z,101241.75
2022-11-25T05:34:46.325Z,101235.66
2022-11-25T05:37:50.121Z,101230.50
2022-11-25T05:40:54.199Z,101239.16
2022-11-25T05:43:57.981Z,101245.19
2022-11-25T05:47:02.958Z,101241.72
2022-11-25T05:50:08.748Z,101232.22
2022-11-25T05:53:12.508Z,101234.81
2022-11-25T05:56:16.390Z,101233.94
2022-11-25T05:59:20.037Z,101233.94
2022-11-25T06:02:25.046Z,101231.34
2022-11-25T06:05:28.766Z,101237.41
2022-11-25T06:08:33.575Z,101240.88
2022-11-25T06:11:37.303Z,101236.53
2022-11-25T06:14:40.893Z,101240.00
2022-11-25T06:17:45.914Z,101246.91
2022-11-25T06:21:05.373Z,101248.63
2022-11-25T06:24:20.919Z,101244.31
2022-11-25T06:27:24.608Z,101250.38
2022-11-25T06:30:28.270Z,101247.78
2022-11-25T06:33:35.309Z,101252.97
2022-11-25T06:36:39.020Z,101248.63
2022-11-25T06:39:42.654Z,101255.56
2022-11-25T06:42:46.277Z,101252.97
2022-11-25T06:45:50.786Z,101262.47
2022-11-25T06:48:56.090Z,101256.41
2022-11-25T06:51:59.674Z,101261.59
2022-11-25T06:55:03.270Z,101260.75
2022-11-25T06:58:28.127Z,101270.25
2022-11-25T07:01:32.112Z,101272.00
2022-11-25T07:04:38.154Z,101270.28
2022-11-25T07:07:41.908Z,101273.72
2022-11-25T07:10:45.562Z,101268.53
2022-11-25T07:13:49.974Z,101272.00
2022-11-25T07:16:53.548Z,101270.25
2022-11-25T07:19:58.497Z,101277.19
2022-11-25T07:23:02.286Z,101281.53
2022-11-25T07:26:10.562Z,101279.78
2022-11-25T07:29:49.932Z,101280.66
2022-11-25T07:32:41.058Z,101288.44
2022-11-25T07:35:46.223Z,101302.31
2022-11-25T07:38:50.087Z,101306.59
2022-11-25T07:41:56.302Z,101317.00
2022-11-25T07:45:00.277Z,101316.16
2022-11-25T07:48:04.007Z,101324.78
2022-11-25T07:51:17.235Z,101329.13
2022-11-25T07:54:22.441Z,101336.03
2022-11-25T07:57:26.057Z,101330.84
2022-11-25T08:00:29.719Z,101338.63
2022-11-25T08:03:37.334Z,101341.22
2022-11-25T08:06:46.184Z,101347.28
2022-11-25T08:09:51.479Z,101344.69
2022-11-25T08:12:55.098Z,101347.31
2022-11-25T08:16:01.316Z,101355.09
2022-11-25T08:19:08.094Z,101356.81
2022-11-25T08:22:13.044Z,101357.66
2022-11-25T08:25:17.221Z,101366.34
2022-11-25T08:28:21.085Z,101366.34
2022-11-25T08:31:28.165Z,101363.75
2022-11-25T08:34:31.782Z,101375.88
2022-11-25T08:37:36.859Z,101375.84
2022-11-25T08:40:45.514Z,101386.25
2022-11-25T08:43:49.584Z,101385.38
2022-11-25T08:46:53.320Z,101389.69
2022-11-25T08:49:57.276Z,101395.75
2022-11-25T08:53:02.863Z,101385.34
2022-11-25T08:56:07.769Z,101386.22
2022-11-25T08:59:11.579Z,101386.19
2022-11-25T09:02:18.175Z,101381.88
2022-11-25T09:05:22.042Z,101391.38
2022-11-25T09:08:27.326Z,101395.69
2022-11-25T09:11:31.007Z,101381.78
2022-11-25T09:14:34.891Z,101393.06
2022-11-25T09:17:38.519Z,101392.19
2022-11-25T09:20:42.718Z,101398.22
2022-11-25T09:23:51.006Z,101403.44
2022-11-25T09:26:54.798Z,101405.13
2022-11-25T09:29:58.643Z,101401.69
2022-11-25T09:33:02.227Z,101393.91
2022-11-25T09:36:07.203Z,101404.28
2022-11-25T09:39:12.501Z,101419.00
2022-11-25T09:42:52.704Z,101415.50
2022-11-25T09:46:28.048Z,101416.34
2022-11-25T09:50:02.921Z,101418.91
2022-11-25T09:53:27.300Z,101425.84
2022-11-25T09:56:39.481Z,101422.34
2022-11-25T09:59:52.124Z,101422.34
2022-11-25T10:03:05.833Z,101426.69
2022-11-25T10:06:19.111Z,101429.22
2022-11-25T10:09:29.184Z,101436.16
2022-11-25T10:12:41.876Z,101435.22
2022-11-25T10:15:49.833Z,101436.16
2022-11-25T10:19:02.361Z,101435.25
2022-11-25T10:22:26.047Z,101442.19
2022-11-25T10:25:32.990Z,101443.03
2022-11-25T10:28:41.402Z,101443.03
2022-11-25T10:31:45.883Z,101441.25
2022-11-25T10:34:54.766Z,101442.94
2022-11-25T10:38:05.099Z,101443.75
2022-11-25T10:41:14.906Z,101442.88
2022-11-25T10:44:27.741Z,101447.13
2022-11-25T10:47:38.345Z,101450.63
2022-11-25T10:51:04.288Z,101456.66
2022-11-25T10:54:27.171Z,101453.13
2022-11-25T10:57:31.382Z,101458.31
2022-11-25T11:00:39.391Z,101454.00
2022-11-25T11:03:45.478Z,101453.97
2022-11-25T11:06:51.412Z,101457.44
2022-11-25T11:09:55.907Z,101463.50
2022-11-25T11:13:02.084Z,101468.59
2022-11-25T11:16:28.172Z,101472.22
2022-11-25T11:19:32.383Z,101473.00
2022-11-25T11:22:36.971Z,101477.31
2022-11-25T11:25:43.175Z,101475.44
2022-11-25T11:28:47.539Z,101465.72
2022-11-25T11:32:00.882Z,101478.88
2022-11-25T11:35:15.882Z,101477.97
2022-11-25T11:38:35.688Z,101475.13
2022-11-25T11:41:48.394Z,101473.31
2022-11-25T11:45:13.666Z,101477.38
2022-11-25T11:48:28.591Z,101481.50
2022-11-25T11:51:44.941Z,101477.16
2022-11-25T11:54:56.610Z,101481.56
2022-11-25T11:58:15.069Z,101488.41
2022-11-25T12:01:46.660Z,101481.22
2022-11-25T12:05:06.085Z,101484.72
2022-11-25T12:08:18.219Z,101477.63
2022-11-25T12:11:30.104Z,101481.06
2022-11-25T12:14:43.429Z,101493.28
2022-11-25T12:17:54.478Z,101496.84
2022-11-25T12:21:05.449Z,101494.28
2022-11-25T12:24:19.763Z,101492.50
2022-11-25T12:27:32.142Z,101489.03
2022-11-25T12:30:43.199Z,101497.63
2022-11-25T12:34:03.208Z,101504.44
2022-11-25T12:37:17.374Z,101498.25
2022-11-25T12:40:31.050Z,101507.72
2022-11-25T12:43:44.668Z,101511.13
2022-11-25T12:46:50.871Z,101510.06
2022-11-25T12:49:57.090Z,101514.41
2022-11-25T12:53:17.048Z,101518.72
2022-11-25T12:56:33.306Z,101525.59
2022-11-25T13:00:39.367Z,101524.63
2022-11-25T13:04:07.622Z,101519.41
2022-11-25T13:07:35.347Z,101523.72
2022-11-25T13:11:04.812Z,101521.03
2022-11-25T13:14:26.295Z,101521.09
2022-11-25T13:17:37.105Z,101525.53
2022-11-25T13:20:50.026Z,101530.81
2022-11-25T13:23:57.173Z,101533.50
2022-11-25T13:27:02.748Z,101537.91
2022-11-25T13:30:30.328Z,101544.78
2022-11-25T13:34:25.540Z,101543.97
2022-11-25T13:37:41.794Z,101557.00
2022-11-25T13:40:59.502Z,101557.03
2022-11-25T13:44:13.284Z,101557.00
2022-11-25T13:47:38.877Z,101554.47
2022-11-25T13:51:09.357Z,101560.59
2022-11-25T13:54:08.562Z,101568.53
2022-11-25T13:57:28.992Z,101574.63
2022-11-25T14:01:07.099Z,101578.16
2022-11-25T14:04:14.061Z,101579.91
2022-11-25T14:07:37.747Z,101585.16
2022-11-25T14:10:51.852Z,101593.00
2022-11-25T14:14:28.806Z,101586.00
2022-11-25T14:18:00.169Z,101593.84
2022-11-25T14:21:17.830Z,101604.44
2022-11-25T14:24:35.717Z,101605.31
2022-11-25T14:27:39.736Z,101608.91
2022-11-25T14:30:53.608Z,101615.00
2022-11-25T14:34:04.717Z,101620.25
2022-11-25T14:37:15.943Z,101623.84
2022-11-25T14:40:26.921Z,101631.63
2022-11-25T14:43:37.106Z,101627.16
2022-11-25T14:46:53.969Z,101634.19
2022-11-25T14:50:26.758Z,101637.66
2022-11-25T14:53:25.744Z,101632.41
2022-11-25T14:56:35.314Z,101635.66
2022-11-25T14:59:44.895Z,101640.91
2022-11-25T15:02:59.482Z,101648.94
2022-11-25T15:06:07.459Z,101657.50
2022-11-25T15:09:25.224Z,101664.78
2022-11-25T15:12:34.202Z,101657.94
2022-11-25T15:15:38.173Z,101670.19
2022-11-25T15:18:50.335Z,101672.94
2022-11-25T15:25:25.831Z,101678.22
2022-11-25T15:28:35.850Z,101686.03
2022-11-25T15:31:42.105Z,101687.81
2022-11-25T15:34:47.672Z,101696.44
2022-11-25T15:37:54.382Z,101699.84
2022-11-25T15:40:58.914Z,101706.84
2022-11-25T15:44:05.906Z,101710.34
2022-11-25T15:47:24.294Z,101713.81
2022-11-25T15:50:32.586Z,101711.25
2022-11-25T15:53:39.461Z,101719.97
2022-11-25T15:56:50.227Z,101726.03
2022-11-25T16:00:16.437Z,101730.34
2022-11-25T16:03:23.624Z,101732.97
2022-11-25T16:06:29.232Z,101738.22
2022-11-25T16:09:34.995Z,101749.50
2022-11-25T16:12:39.084Z,101756.47
2022-11-25T16:15:49.062Z,101758.22
2022-11-25T16:19:14.049Z,101764.34
2022-11-25T16:22:21.651Z,101764.34
2022-11-25T16:25:26.828Z,101771.28
2022-11-25T16:28:31.462Z,101766.94
2022-11-25T16:31:35.103Z,101769.50
2022-11-25T16:34:39.477Z,101775.63
2022-11-25T16:37:48.465Z,101786.97
2022-11-25T16:40:55.117Z,101791.31
2022-11-25T16:44:03.621Z,101793.03
2022-11-25T16:47:12.447Z,101788.69
2022-11-25T16:50:17.727Z,101788.81
2022-11-25T16:53:21.328Z,101795.84
2022-11-25T16:56:29.771Z,101804.56
2022-11-25T16:59:37.888Z,101803.72
2022-11-25T17:02:41.852Z,101812.41
2022-11-25T17:05:45.758Z,101812.41
2022-11-25T17:08:49.731Z,101821.94
2022-11-25T17:11:56.080Z,101823.63
2022-11-25T17:15:01.376Z,101829.78
2022-11-25T17:18:08.921Z,101832.38
2022-11-25T17:21:15.534Z,101840.19
2022-11-25T17:24:22.667Z,101840.25
2022-11-25T17:27:32.574Z,101842.00
2022-11-25T17:30:41.509Z,101852.44
2022-11-25T17:33:48.060Z,101860.31
2022-11-25T17:36:52.304Z,101860.28
2022-11-25T17:39:56.326Z,101863.78
2022-11-25T17:43:01.491Z,101862.84
2022-11-25T17:46:05.440Z,101872.41
2022-11-25T17:49:16.560Z,101871.50
2022-11-25T17:52:20.305Z,101876.69
2022-11-25T17:55:24.022Z,101888.03
2022-11-25T17:58:31.331Z,101891.47
2022-11-25T18:01:47.772Z,101902.84
2022-11-25T18:04:51.818Z,101905.47
2022-11-25T18:07:55.895Z,101903.72
2022-11-25T18:11:02.605Z,101912.44
2022-11-25T18:14:07.797Z,101913.34
2022-11-25T18:17:17.287Z,101920.31
2022-11-25T18:20:28.143Z,101910.75
2022-11-25T18:23:34.845Z,101917.75
2022-11-25T18:26:46.400Z,101925.63
2022-11-25T18:29:54.983Z,101930.88
2022-11-25T18:32:59.281Z,101931.75
2022-11-25T18:36:02.938Z,101942.19
2022-11-25T18:39:06.697Z,101951.75
2022-11-25T18:42:24.126Z,101951.75
2022-11-25T18:45:34.156Z,101954.38
2022-11-25T18:48:37.872Z,101951.75
2022-11-25T18:51:42.386Z,101960.44
2022-11-25T18:54:46.710Z,101968.28
2022-11-25T18:57:53.565Z,101968.25
2022-11-25T19:01:05.985Z,101975.25
2022-11-25T19:04:17.400Z,101975.22
2022-11-25T19:07:22.260Z,101979.56
2022-11-25T19:10:33.460Z,101987.41
2022-11-25T19:13:38.548Z,101992.63
2022-11-25T19:16:45.280Z,102003.94
2022-11-25T19:19:49.196Z,102003.06
2022-11-25T19:22:56.661Z,102010.03
2022-11-25T19:26:11.498Z,102018.75
2022-11-25T19:29:21.113Z,102020.47
2022-11-25T19:32:30.633Z,102037.00
2022-11-25T19:35:38.763Z,102040.50
2022-11-25T19:38:42.480Z,102042.22
2022-11-25T19:41:46.235Z,102055.31
2022-11-25T19:44:49.970Z,102057.94
2022-11-25T19:47:54.966Z,102059.66
2022-11-25T19:51:02.215Z,102075.31
2022-11-25T19:54:07.310Z,102073.59
2022-11-25T19:57:19.387Z,102080.53
2022-11-25T20:00:25.276Z,102086.66
2022-11-25T20:03:32.550Z,102090.09
2022-11-25T20:06:37.845Z,102097.94
2022-11-25T20:09:42.729Z,102102.22
2022-11-25T20:12:47.115Z,102123.94
2022-11-25T20:15:52.138Z,102119.53
2022-11-25T20:18:58.270Z,102122.16
2022-11-25T20:22:02.031Z,102127.31
2022-11-25T20:25:10.649Z,102129.00
2022-11-25T20:28:19.045Z,102130.75
2022-11-25T20:31:27.337Z,102134.16
2022-11-25T20:34:40.490Z,102135.88
2022-11-25T20:37:57.977Z,102143.63
2022-11-25T20:41:02.991Z,102156.66
2022-11-25T20:44:06.721Z,102152.28
2022-11-25T20:47:16.668Z,102160.06
2022-11-25T20:50:23.021Z,102168.63
2022-11-25T20:53:28.070Z,102170.34
2022-11-25T20:56:31.835Z,102169.44
2022-11-25T20:59:35.746Z,102190.16
2022-11-25T21:02:39.559Z,102188.34
2022-11-25T21:05:45.074Z,102197.84
2022-11-25T21:08:52.246Z,102201.25
2022-11-25T21:11:55.971Z,102199.47
2022-11-25T21:14:59.946Z,102199.41
2022-11-25T21:18:04.166Z,102210.66
2022-11-25T21:21:17.594Z,102209.72
2022-11-25T21:24:31.460Z,102211.44
2022-11-25T21:27:35.434Z,102213.94
2022-11-25T21:30:39.089Z,102219.13
2022-11-25T21:33:42.815Z,102226.09
2022-11-25T21:36:53.168Z,102225.25
2022-11-25T21:39:58.485Z,102235.50
2022-11-25T21:43:04.396Z,102231.13
2022-11-25T21:46:14.805Z,102231.13
2022-11-25T21:49:18.520Z,102234.53
2022-11-25T21:52:23.621Z,102243.09
2022-11-25T21:55:27.322Z,102236.16
2022-11-25T21:58:32.613Z,102245.69
2022-11-25T22:01:36.378Z,102249.13
2022-11-25T22:04:40.328Z,102246.53
2022-11-25T22:07:46.188Z,102253.41
2022-11-25T22:10:53.275Z,102250.81
2022-11-25T22:13:59.026Z,102255.13
2022-11-25T22:17:06.015Z,102256.81
2022-11-25T22:20:27.200Z,102261.97
2022-11-25T22:23:32.204Z,102264.50
2022-11-25T22:26:36.286Z,102261.81
2022-11-25T22:29:40.114Z,102271.38
2022-11-25T22:32:44.033Z,102274.78
2022-11-25T22:35:47.793Z,102278.38
2022-11-25T22:38:52.741Z,102279.19
2022-11-25T22:42:05.259Z,102291.34
2022-11-25T22:45:19.805Z,102291.25
2022-11-25T22:48:32.245Z,102293.84
2022-11-25T22:51:35.874Z,102298.06
2022-11-25T22:54:41.218Z,102306.72
2022-11-25T22:57:45.183Z,102302.28
2022-11-25T23:00:49.623Z,102307.44
2022-11-25T23:03:53.263Z,102311.72
2022-11-25T23:06:57.885Z,102316.09
2022-11-25T23:10:02.932Z,102325.69
2022-11-25T23:13:06.494Z,102328.31
2022-11-25T23:16:12.608Z,102321.31
2022-11-25T23:19:17.591Z,102328.22
2022-11-25T23:22:21.909Z,102330.88
2022-11-25T23:25:26.883Z,102339.59
2022-11-25T23:28:30.503Z,102330.09
2022-11-25T23:31:36.161Z,102337.81
2022-11-25T23:34:40.033Z,102333.59
2022-11-25T23:37:44.289Z,102354.38
2022-11-25T23:40:49.241Z,102349.22
2022-11-25T23:43:53.971Z,102356.28
2022-11-25T23:47:02.168Z,102372.66
2022-11-25T23:50:08.019Z,102371.78
2022-11-25T23:53:22.501Z,102370.88
2022-11-25T23:56:29.738Z,102373.50
2022-11-25T23:59:33.370Z,102383.84
